Time;durP1;ratioP1;P1;durP2;ratioP2;P2;SDS_P1;SDS_P2;PMS_P1;PMS_P2;Temp;Humidity;BMP_temperature;BMP_pressure;BME280_temperature;BME280_humidity;BME280_pressure;Samples;Min_cycle;Max_cycle;Signal;HPM_P1;HPM_P2
2022/08/07 00:00:27;;;;;;;0.63;0.63;;;;;;;;;;5019857;28;20669;-90
2022/08/07 00:02:54;;;;;;;1.55;1.27;;;15.80;99.90;;;;;;5053387;28;20580;-90
2022/08/07 00:05:21;;;;;;;0.73;0.73;;;15.90;99.90;;;;;;5035995;28;20195;-90
2022/08/07 00:07:47;;;;;;;1.02;0.93;;;;;;;;;;5053334;28;20184;-90
2022/08/07 00:10:13;;;;;;;0.63;0.60;;;;;;;;;;5053828;28;20179;-89
2022/08/07 00:12:39;;;;;;;0.77;0.77;;;15.70;99.90;;;;;;5019190;28;20188;-90
2022/08/07 00:15:05;;;;;;;0.75;0.68;;;15.70;99.90;;;;;;5035907;28;20284;-89
2022/08/07 00:17:30;;;;;;;0.73;0.63;;;15.70;99.90;;;;;;5035856;28;20656;-90
2022/08/07 00:19:56;;;;;;;1.02;1.00;;;;;;;;;;5019154;28;20180;-90
2022/08/07 00:22:22;;;;;;;1.45;0.60;;;15.60;99.90;;;;;;5054007;28;20617;-90
2022/08/07 00:24:48;;;;;;;1.33;0.93;;;15.30;99.90;;;;;;5018821;28;20184;-90
2022/08/07 00:27:13;;;;;;;1.50;1.30;;;15.50;99.90;;;;;;5035849;28;20218;-90
2022/08/07 00:29:39;;;;;;;0.95;0.88;;;15.40;99.90;;;;;;5035464;28;20229;-89
2022/08/07 00:32:05;;;;;;;0.93;0.93;;;15.70;99.90;;;;;;5035455;28;20541;-90
2022/08/07 00:34:31;;;;;;;0.75;0.73;;;15.20;99.90;;;;;;5035337;28;20353;-87
2022/08/07 00:36:57;;;;;;;0.70;0.70;;;;;;;;;;5031490;28;20723;-87
2022/08/07 00:39:23;;;;;;;1.83;1.33;;;15.30;99.90;;;;;;5033308;28;20180;-87
2022/08/07 00:41:51;;;;;;;1.13;0.98;;;15.20;99.90;;;;;;5032597;28;20195;-87
2022/08/07 00:44:16;;;;;;;1.13;0.93;;;15.20;99.90;;;;;;5015828;28;20275;-87
2022/08/07 00:46:42;;;;;;;0.95;0.85;;;;;;;;;;5031830;28;20268;-87
2022/08/07 00:49:08;;;;;;;0.75;0.75;;;15.10;99.90;;;;;;5032160;28;20231;-88
2022/08/07 00:51:34;;;;;;;0.95;0.80;;;15.10;99.90;;;;;;5033628;28;20189;-87
2022/08/07 00:54:00;;;;;;;0.68;0.68;;;;;;;;;;5011870;28;20212;-88
2022/08/07 00:56:27;;;;;;;0.75;0.75;;;14.90;99.90;;;;;;5014133;28;20192;-88
2022/08/07 00:58:53;;;;;;;1.88;1.33;;;14.60;99.90;;;;;;5012012;28;20604;-88
2022/08/07 01:01:19;;;;;;;0.90;0.88;;;14.70;99.90;;;;;;5016277;28;20209;-88
2022/08/07 01:03:45;;;;;;;1.05;0.73;;;;;;;;;;5017504;28;20595;-91
2022/08/07 01:06:11;;;;;;;1.58;1.17;;;14.90;99.90;;;;;;5000318;28;20185;-90
2022/08/07 01:08:38;;;;;;;0.50;0.50;;;14.90;99.90;;;;;;5017348;28;20197;-88
2022/08/07 01:11:04;;;;;;;0.85;0.82;;;15.00;99.90;;;;;;5025463;28;20191;-88
2022/08/07 01:13:29;;;;;;;2.28;0.80;;;14.80;99.90;;;;;;5019585;28;20185;-89
2022/08/07 01:15:57;;;;;;;1.50;1.33;;;14.80;99.90;;;;;;5035123;28;20646;-89
2022/08/07 01:18:23;;;;;;;3.47;0.93;;;;;;;;;;5035935;28;20187;-89
2022/08/07 01:21:13;;;;;;;1.15;1.00;;;15.20;99.90;;;;;;5035850;28;20614;-89
2022/08/07 01:23:41;;;;;;;2.40;0.82;;;14.70;99.90;;;;;;5035490;28;20176;-89
2022/08/07 01:26:12;;;;;;;0.98;0.63;;;14.70;99.90;;;;;;5037163;28;20168;-89
2022/08/07 01:28:40;;;;;;;2.17;1.02;;;14.30;99.90;;;;;;5036547;28;20214;-90
2022/08/07 01:31:06;;;;;;;2.30;0.70;;;14.60;99.90;;;;;;5037239;28;20251;-90
2022/08/07 01:33:32;;;;;;;0.68;0.68;;;14.40;99.90;;;;;;5035541;28;20200;-90
2022/08/07 01:35:59;;;;;;;0.98;0.85;;;;;;;;;;5035932;28;20184;-90
2022/08/07 01:38:25;;;;;;;1.35;1.13;;;14.80;99.90;;;;;;5055784;28;20250;-90
2022/08/07 01:40:54;;;;;;;0.90;0.90;;;14.60;99.90;;;;;;5038486;28;20246;-89
2022/08/07 01:43:20;;;;;;;0.88;0.88;;;14.50;99.90;;;;;;5056573;28;20168;-90
2022/08/07 01:45:46;;;;;;;2.38;1.15;;;14.60;99.90;;;;;;5038779;28;20234;-89
2022/08/07 01:48:12;;;;;;;0.60;0.60;;;;;;;;;;5056692;28;20187;-90
2022/08/07 01:50:39;;;;;;;0.68;0.68;;;14.30;99.90;;;;;;5056224;28;20172;-90
2022/08/07 01:53:06;;;;;;;1.75;1.40;;;14.60;99.90;;;;;;5021875;28;20179;-90
2022/08/07 01:55:53;;;;;;;0.98;0.85;;;14.30;99.90;;;;;;5038529;28;20222;-89
2022/08/07 01:58:21;;;;;;;0.80;0.80;;;14.20;99.90;;;;;;5038684;28;20176;-89
2022/08/07 02:00:52;;;;;;;0.80;0.80;;;14.10;99.90;;;;;;5056057;28;20251;-91
2022/08/07 02:03:21;;;;;;;1.13;0.90;;;14.20;99.90;;;;;;5056275;28;20222;-90
2022/08/07 02:05:53;;;;;;;0.45;0.45;;;14.00;99.90;;;;;;5037945;28;20184;-90
2022/08/07 02:08:22;;;;;;;1.58;1.45;;;14.10;99.90;;;;;;5038254;28;20188;-89
2022/08/07 02:10:53;;;;;;;2.90;1.20;;;14.10;99.90;;;;;;5055732;28;20172;-89
2022/08/07 02:13:23;;;;;;;0.70;0.70;;;14.00;99.90;;;;;;5055968;28;20176;-90
2022/08/07 02:15:51;;;;;;;0.82;0.63;;;14.50;99.90;;;;;;5021607;28;20649;-89
2022/08/07 02:18:18;;;;;;;1.17;0.73;;;14.30;99.90;;;;;;5055623;28;20176;-90
2022/08/07 02:20:46;;;;;;;0.80;0.57;;;14.10;99.90;;;;;;5028904;28;20181;-88
2022/08/07 02:23:13;;;;;;;0.88;0.70;;;14.10;99.90;;;;;;5029099;28;20192;-88
2022/08/07 02:25:40;;;;;;;0.93;0.93;;;14.10;99.90;;;;;;5047009;28;20180;-88
2022/08/07 02:28:07;;;;;;;0.60;0.60;;;14.30;99.90;;;;;;5045687;28;20180;-89
2022/08/07 02:30:35;;;;;;;0.50;0.50;;;14.00;99.90;;;;;;5044222;28;20719;-89
2022/08/07 02:33:02;;;;;;;1.75;1.27;;;13.60;99.90;;;;;;5034225;28;20755;-89
2022/08/07 02:35:29;;;;;;;0.30;0.30;;;13.70;99.90;;;;;;5055535;28;20679;-89
2022/08/07 02:37:57;;;;;;;0.80;0.63;;;14.20;99.90;;;;;;5037222;28;20235;-90
2022/08/07 02:40:23;;;;;;;0.50;0.50;;;13.90;99.90;;;;;;5037811;28;20180;-91
2022/08/07 02:42:49;;;;;;;0.80;0.80;;;13.90;99.90;;;;;;5020792;28;20541;-89
2022/08/07 02:45:17;;;;;;;0.60;0.60;;;13.50;99.90;;;;;;5055482;28;20202;-91
2022/08/07 02:47:43;;;;;;;2.25;1.38;;;13.90;99.90;;;;;;5055975;28;20655;-90
2022/08/07 02:50:09;;;;;;;0.82;0.82;;;14.20;99.90;;;;;;5020758;28;20176;-89
2022/08/07 02:52:40;;;;;;;0.40;0.40;;;13.80;99.90;;;;;;5021449;28;20180;-89
2022/08/07 02:55:14;;;;;;;0.85;0.70;;;13.40;99.90;;;;;;5055155;28;20282;-90
2022/08/07 02:57:41;;;;;;;1.00;0.93;;;13.80;99.90;;;;;;5055609;28;20171;-90
2022/08/07 03:00:09;;;;;;;0.93;0.70;;;13.70;99.90;;;;;;5054999;28;20176;-90
2022/08/07 03:02:36;;;;;;;1.13;0.90;;;13.70;99.90;;;;;;5055333;28;20533;-90
2022/08/07 03:05:03;;;;;;;0.57;0.57;;;14.00;99.90;;;;;;5054911;28;20176;-90
2022/08/07 03:07:30;;;;;;;0.40;0.40;;;13.70;99.90;;;;;;5037256;28;20176;-90
2022/08/07 03:09:56;;;;;;;10.50;0.75;;;13.40;99.90;;;;;;5037009;28;20180;-91
2022/08/07 03:12:22;;;;;;;0.60;0.60;;;;;;;;;;5020260;28;20186;-89
2022/08/07 03:14:49;;;;;;;3.65;1.15;;;11.20;99.90;;;;;;5037293;28;20306;-92
2022/08/07 03:17:15;;;;;;;0.43;0.43;;;13.60;99.90;;;;;;5054628;28;20640;-90
2022/08/07 03:19:41;;;;;;;1.38;0.68;;;13.60;99.90;;;;;;5036857;28;20199;-91
2022/08/07 03:22:07;;;;;;;0.75;0.75;;;;;;;;;;5036410;28;20539;-91
2022/08/07 03:24:34;;;;;;;0.57;0.57;;;13.60;99.90;;;;;;5054410;28;20183;-91
2022/08/07 03:27:02;;;;;;;0.75;0.75;;;13.40;99.90;;;;;;5054532;28;20176;-91
2022/08/07 03:29:36;;;;;;;0.50;0.50;;;13.60;99.90;;;;;;5054446;28;20191;-89
2022/08/07 03:32:05;;;;;;;1.55;0.50;;;13.10;99.90;;;;;;5054329;28;20566;-90
2022/08/07 03:34:32;;;;;;;0.50;0.50;;;13.60;99.90;;;;;;5036666;28;20203;-90
2022/08/07 03:37:00;;;;;;;4.00;1.48;;;13.60;99.90;;;;;;5054007;28;20235;-91
2022/08/07 03:39:28;;;;;;;0.57;0.57;;;13.70;99.90;;;;;;5036879;28;20208;-90
2022/08/07 03:41:54;;;;;;;0.60;0.60;;;13.60;99.90;;;;;;5054345;28;20172;-90
2022/08/07 03:44:20;;;;;;;0.35;0.35;;;;;;;;;;5019348;28;20657;-91
2022/08/07 03:46:46;;;;;;;0.70;0.70;;;13.60;99.90;;;;;;5053841;28;20551;-89
2022/08/07 03:49:12;;;;;;;0.70;0.70;;;13.80;99.90;;;;;;5020021;28;20182;-90
2022/08/07 03:51:39;;;;;;;0.40;0.40;;;13.60;99.90;;;;;;5057509;28;20184;-90
2022/08/07 03:54:04;;;;;;;0.70;0.70;;;13.90;99.90;;;;;;5044475;28;20204;-90
2022/08/07 03:56:35;;;;;;;2.10;0.93;;;13.60;99.90;;;;;;5058770;28;20583;-90
2022/08/07 03:59:02;;;;;;;1.63;0.90;;;13.60;99.90;;;;;;5058140;28;20172;-89
2022/08/07 04:01:30;;;;;;;1.02;0.80;;;13.70;99.90;;;;;;5036290;28;20291;-90
2022/08/07 04:03:56;;;;;;;0.50;0.50;;;13.70;99.90;;;;;;5054433;28;20171;-90
2022/08/07 04:06:22;;;;;;;0.57;0.57;;;;;;;;;;5058335;28;20234;-91
2022/08/07 04:08:48;;;;;;;0.73;0.60;;;13.70;99.90;;;;;;5064457;28;20201;-90
2022/08/07 04:11:14;;;;;;;0.85;0.82;;;13.90;99.90;;;;;;5044625;28;20281;-91
2022/08/07 04:13:40;;;;;;;0.60;0.60;;;13.80;99.90;;;;;;5042887;28;20171;-90
2022/08/07 04:16:06;;;;;;;0.85;0.73;;;13.80;99.90;;;;;;5036689;28;20188;-91
2022/08/07 04:18:33;;;;;;;0.57;0.57;;;;;;;;;;5054870;28;20172;-91
2022/08/07 04:20:58;;;;;;;2.20;0.52;;;14.00;99.90;;;;;;5036869;28;20229;-91
2022/08/07 04:23:25;;;;;;;0.93;0.70;;;;;;;;;;5054711;28;20168;-91
2022/08/07 04:25:52;;;;;;;0.98;0.98;;;13.80;99.90;;;;;;5054413;28;20655;-90
2022/08/07 04:28:19;;;;;;;0.52;0.52;;;14.20;99.90;;;;;;5058163;28;20234;-91
2022/08/07 04:30:49;;;;;;;1.08;0.90;;;14.10;99.90;;;;;;5055773;28;20210;-89
2022/08/07 04:33:16;;;;;;;0.80;0.80;;;14.70;99.90;;;;;;5077837;28;20199;-90
2022/08/07 04:35:45;;;;;;;0.50;0.50;;;14.30;99.90;;;;;;5060467;28;20203;-90
2022/08/07 04:38:11;;;;;;;2.15;0.57;;;14.30;99.90;;;;;;5077577;28;20216;-89
2022/08/07 04:40:41;;;;;;;1.13;0.50;;;14.40;99.90;;;;;;5078054;28;20183;-89
2022/08/07 04:43:07;;;;;;;3.60;1.38;;;14.50;99.90;;;;;;5077676;28;20167;-89
2022/08/07 04:46:05;;;;;;;1.73;1.38;;;14.60;99.90;;;;;;5061039;28;20167;-89
2022/08/07 04:49:03;;;;;;;1.77;1.67;;;14.60;99.90;;;;;;5034726;28;20195;-89
2022/08/07 04:52:07;;;;;;;2.30;1.90;;;14.60;99.90;;;;;;5076885;28;20191;-89
2022/08/07 04:54:35;;;;;;;0.82;0.80;;;14.50;99.90;;;;;;5077139;28;20249;-89
2022/08/07 04:57:14;;;;;;;3.47;1.73;;;14.50;99.90;;;;;;5077797;28;20187;-90
2022/08/07 04:59:48;;;;;;;1.70;1.60;;;15.30;99.90;;;;;;5057456;28;20190;-90
2022/08/07 05:02:23;;;;;;;2.00;0.90;;;14.50;99.90;;;;;;5035377;28;20176;-90
2022/08/07 05:05:01;;;;;;;0.95;0.70;;;14.40;99.90;;;;;;5053435;28;20174;-90
2022/08/07 05:07:52;;;;;;;0.50;0.50;;;14.90;99.90;;;;;;5052760;28;20241;-90
2022/08/07 05:10:28;;;;;;;0.60;0.60;;;14.80;99.90;;;;;;5039793;28;20206;-90
2022/08/07 05:12:59;;;;;;;0.75;0.60;;;15.10;99.90;;;;;;5053272;28;20167;-90
2022/08/07 05:15:37;;;;;;;1.65;0.50;;;14.90;99.90;;;;;;5052547;28;20200;-90
2022/08/07 05:18:15;;;;;;;1.83;1.00;;;15.20;99.90;;;;;;5052959;28;20243;-90
2022/08/07 05:20:45;;;;;;;9.40;2.90;;;15.20;99.90;;;;;;5053522;28;20267;-90
2022/08/07 05:23:16;;;;;;;2.03;0.82;;;15.70;99.90;;;;;;5052490;28;20157;-89
2022/08/07 05:25:43;;;;;;;0.95;0.80;;;15.50;99.90;;;;;;5035245;28;20230;-90
2022/08/07 05:28:10;;;;;;;0.50;0.50;;;15.20;99.90;;;;;;5052349;28;20176;-90
2022/08/07 05:30:36;;;;;;;0.95;0.60;;;15.50;99.90;;;;;;5053362;28;20176;-90
2022/08/07 05:33:04;;;;;;;0.40;0.40;;;15.50;99.90;;;;;;5034851;28;20511;-90
2022/08/07 05:35:34;;;;;;;1.83;0.68;;;16.00;99.90;;;;;;5034370;28;20223;-90
2022/08/07 05:38:02;;;;;;;1.00;0.35;;;15.70;99.90;;;;;;5014908;28;20236;-89
2022/08/07 05:40:29;;;;;;;1.60;0.93;;;15.90;99.90;;;;;;5030945;28;20235;-90
2022/08/07 05:42:55;;;;;;;1.40;0.50;;;15.80;99.90;;;;;;5014613;28;20592;-89
2022/08/07 05:45:25;;;;;;;1.80;0.45;;;15.70;99.90;;;;;;5028190;28;20659;-89
2022/08/07 05:47:52;;;;;;;2.85;1.45;;;16.10;99.90;;;;;;5031997;28;20184;-89
2022/08/07 05:50:18;;;;;;;3.05;1.30;;;16.00;99.90;;;;;;5034961;28;20196;-89
2022/08/07 05:52:46;;;;;;;0.90;0.65;;;15.80;99.90;;;;;;5027930;28;20272;-89
2022/08/07 05:55:12;;;;;;;0.30;0.30;;;;;;;;;;5027738;28;20203;-91
2022/08/07 05:57:40;;;;;;;1.50;0.80;;;15.90;99.90;;;;;;5032637;28;20207;-90
2022/08/07 06:00:07;;;;;;;0.45;0.40;;;16.20;99.90;;;;;;5027946;28;20183;-90
2022/08/07 06:02:35;;;;;;;0.52;0.30;;;16.40;99.90;;;;;;5030049;28;20204;-89
2022/08/07 06:05:09;;;;;;;0.40;0.40;;;16.40;99.90;;;;;;5034194;28;20307;-90
2022/08/07 06:07:35;;;;;;;0.70;0.70;;;16.60;99.90;;;;;;5028676;28;20176;-90
2022/08/07 06:10:01;;;;;;;0.47;0.40;;;16.60;99.90;;;;;;5025831;28;20510;-89
2022/08/07 06:12:28;;;;;;;0.40;0.40;;;17.20;99.90;;;;;;5023963;28;20264;-89
2022/08/07 06:14:54;;;;;;;0.30;0.30;;;16.70;99.90;;;;;;5024196;28;20193;-89
2022/08/07 06:17:20;;;;;;;0.40;0.40;;;;;;;;;;5023655;28;20184;-87
2022/08/07 06:19:49;;;;;;;0.40;0.40;;;16.80;99.90;;;;;;5026981;28;20189;-86
2022/08/07 06:22:16;;;;;;;7.05;0.52;;;16.80;99.90;;;;;;5033664;28;20188;-88
2022/08/07 06:24:42;;;;;;;0.45;0.45;;;17.00;99.90;;;;;;5011846;28;20180;-87
2022/08/07 06:27:08;;;;;;;1.02;0.65;;;;;;;;;;5029872;28;20188;-87
2022/08/07 06:29:34;;;;;;;1.13;0.45;;;;;;;;;;5029247;28;20250;-87
2022/08/07 06:32:00;;;;;;;0.52;0.30;;;17.20;99.90;;;;;;5030781;28;20185;-88
2022/08/07 06:34:26;;;;;;;0.40;0.40;;;17.00;99.90;;;;;;5015675;28;20278;-86
2022/08/07 06:36:53;;;;;;;1.65;0.68;;;17.00;99.90;;;;;;5025296;28;20295;-88
2022/08/07 06:39:20;;;;;;;0.32;0.32;;;16.90;99.90;;;;;;5031362;28;20555;-87
2022/08/07 06:41:58;;;;;;;2.30;0.73;;;17.00;99.90;;;;;;5030698;28;20177;-88
2022/08/07 06:44:26;;;;;;;1.17;0.50;;;16.80;99.90;;;;;;5031532;28;20255;-87
2022/08/07 06:46:52;;;;;;;0.60;0.60;;;16.80;99.90;;;;;;5029447;28;20224;-89
2022/08/07 06:49:18;;;;;;;0.40;0.40;;;;;;;;;;5013870;28;20186;-89
2022/08/07 06:51:45;;;;;;;0.60;0.45;;;17.50;99.90;;;;;;5048381;28;20196;-91
2022/08/07 06:54:15;;;;;;;0.40;0.40;;;17.60;99.90;;;;;;5055776;28;20223;-90
2022/08/07 06:56:43;;;;;;;1.35;0.57;;;;;;;;;;5036985;28;20161;-90
2022/08/07 06:59:31;;;;;;;0.63;0.35;;;17.70;99.90;;;;;;5035950;28;20166;-88
2022/08/07 07:01:57;;;;;;;1.35;0.70;;;;;;;;;;5050930;28;20177;-89
2022/08/07 07:04:24;;;;;;;0.38;0.35;;;17.70;99.90;;;;;;5052090;28;20177;-93
2022/08/07 07:06:50;;;;;;;0.70;0.50;;;;;;;;;;5027781;28;20180;-91
2022/08/07 07:09:28;;;;;;;0.30;0.30;;;17.40;99.90;;;;;;5041616;28;20173;-91
2022/08/07 07:12:13;;;;;;;0.20;0.20;;;17.60;99.90;;;;;;5057076;28;20165;-92
2022/08/07 07:14:48;;;;;;;0.70;0.70;;;17.40;99.90;;;;;;5052374;28;20216;-85
2022/08/07 07:17:40;;;;;;;0.25;0.25;;;18.30;99.90;;;;;;5043959;28;20536;-88
2022/08/07 07:20:15;;;;;;;0.32;0.32;;;18.00;99.90;;;;;;5045888;28;20261;-90
2022/08/07 07:22:43;;;;;;;0.30;0.30;;;17.90;99.90;;;;;;5038435;28;20180;-89
2022/08/07 07:25:11;;;;;;;1.17;0.40;;;18.00;99.90;;;;;;5034564;28;20203;-88
2022/08/07 07:27:43;;;;;;;0.40;0.40;;;17.90;99.90;;;;;;5035390;28;20184;-88
2022/08/07 07:30:11;;;;;;;0.25;0.25;;;17.80;99.90;;;;;;5035593;28;20626;-88
2022/08/07 07:32:39;;;;;;;0.55;0.55;;;17.70;99.90;;;;;;5034804;28;20334;-88
2022/08/07 07:35:14;;;;;;;0.30;0.30;;;17.70;99.90;;;;;;5035790;28;20211;-88
2022/08/07 07:37:43;;;;;;;1.15;0.77;;;17.80;99.90;;;;;;5048903;28;20263;-88
2022/08/07 07:40:14;;;;;;;0.40;0.40;;;17.80;99.90;;;;;;5055826;28;20176;-88
2022/08/07 07:42:45;;;;;;;0.40;0.40;;;18.00;99.90;;;;;;5037176;28;20187;-88
2022/08/07 07:45:13;;;;;;;0.45;0.40;;;18.10;99.90;;;;;;5039408;28;20229;-88
2022/08/07 07:47:42;;;;;;;1.00;0.40;;;18.20;99.90;;;;;;5055594;28;20178;-88
2022/08/07 07:50:14;;;;;;;1.88;0.50;;;18.40;99.90;;;;;;5055968;28;20176;-88
2022/08/07 07:52:52;;;;;;;0.30;0.30;;;18.60;99.90;;;;;;5038825;28;20229;-87
2022/08/07 07:55:19;;;;;;;0.50;0.40;;;18.70;99.90;;;;;;5037216;28;20223;-88
2022/08/07 07:57:47;;;;;;;0.88;0.40;;;18.80;99.90;;;;;;5039131;28;20184;-88
2022/08/07 08:00:14;;;;;;;0.75;0.75;;;18.80;99.90;;;;;;5041792;28;20180;-87
2022/08/07 08:02:43;;;;;;;0.30;0.30;;;;;;;;;;5023567;28;20210;-88
2022/08/07 08:05:12;;;;;;;0.28;0.28;;;18.80;99.90;;;;;;5016109;28;20208;-90
2022/08/07 08:07:39;;;;;;;0.43;0.43;;;18.80;99.90;;;;;;5017184;28;20643;-91
2022/08/07 08:10:09;;;;;;;0.20;0.20;;;19.00;99.90;;;;;;5045831;28;20259;-88
2022/08/07 08:12:41;;;;;;;0.45;0.45;;;19.00;99.90;;;;;;5052673;28;20225;-89
2022/08/07 08:15:07;;;;;;;0.30;0.30;;;;;;;;;;5053991;28;20195;-88
2022/08/07 08:17:35;;;;;;;0.20;0.20;;;19.20;99.90;;;;;;5053972;28;20176;-88
2022/08/07 08:20:04;;;;;;;0.28;0.28;;;19.40;98.70;;;;;;5052682;28;20176;-90
2022/08/07 08:28:04;;;;;;;0.28;0.28;;;19.60;96.30;;;;;;5054142;28;20682;-90
2022/08/07 08:30:38;;;;;;;0.30;0.30;;;19.60;94.10;;;;;;5036306;28;20534;-92
2022/08/07 08:33:05;;;;;;;0.40;0.40;;;19.60;92.80;;;;;;5051885;28;20184;-90
2022/08/07 08:35:44;;;;;;;0.30;0.30;;;19.60;93.00;;;;;;5053688;28;20195;-91
2022/08/07 08:38:15;;;;;;;0.60;0.30;;;19.50;92.30;;;;;;5052372;28;20250;-89
2022/08/07 08:40:49;;;;;;;0.32;0.32;;;19.60;94.30;;;;;;5052762;28;20262;-89
2022/08/07 08:43:22;;;;;;;0.45;0.30;;;19.80;92.90;;;;;;5052746;28;20183;-88
2022/08/07 08:46:08;;;;;;;1.45;0.30;;;20.00;94.00;;;;;;5027016;28;20176;-90
2022/08/07 08:48:50;;;;;;;0.43;0.38;;;20.10;94.40;;;;;;5033949;28;20172;-91
2022/08/07 08:51:17;;;;;;;1.02;0.40;;;;;;;;;;5016501;28;20184;-90
2022/08/07 08:54:16;;;;;;;0.43;0.20;;;20.10;90.60;;;;;;5015833;28;20183;-93
2022/08/07 08:56:51;;;;;;;2.28;0.28;;;20.10;91.70;;;;;;5015788;28;20223;-90
2022/08/07 08:59:49;;;;;;;1.00;0.32;;;20.20;92.80;;;;;;5034512;28;20168;-91
2022/08/07 09:02:37;;;;;;;0.60;0.60;;;20.30;92.20;;;;;;4994175;28;20199;-89
2022/08/07 09:05:36;;;;;;;0.30;0.30;;;20.50;91.70;;;;;;5034110;28;20196;-90
2022/08/07 09:08:17;;;;;;;0.20;0.20;;;20.50;92.20;;;;;;5016529;28;20212;-90
2022/08/07 09:11:03;;;;;;;0.20;0.20;;;20.90;90.90;;;;;;5025432;28;20258;-90
2022/08/07 09:13:42;;;;;;;1.02;0.35;;;20.90;88.10;;;;;;5035806;28;20569;-89
2022/08/07 09:16:25;;;;;;;0.20;0.20;;;20.90;89.10;;;;;;5036135;28;20285;-92
2022/08/07 09:18:51;;;;;;;0.30;0.30;;;;;;;;;;5035893;28;20179;-90
2022/08/07 09:21:53;;;;;;;2.50;0.38;;;21.20;85.50;;;;;;5055086;28;20526;-90
2022/08/07 09:24:19;;;;;;;0.45;0.20;;;;;;;;;;5057952;28;20183;-88
2022/08/07 09:26:55;;;;;;;0.85;0.10;;;21.10;80.40;;;;;;5057662;28;20641;-91
2022/08/07 09:29:43;;;;;;;0.20;0.20;;;21.10;81.10;;;;;;5057595;28;20160;-91
2022/08/07 09:32:25;;;;;;;0.35;0.35;;;21.10;93.40;;;;;;5049300;28;20180;-90
2022/08/07 09:35:15;;;;;;;1.90;0.30;;;20.90;82.60;;;;;;5042282;28;20208;-89
2022/08/07 09:38:03;;;;;;;0.30;0.30;;;21.00;79.40;;;;;;5023903;28;20296;-90
2022/08/07 09:40:39;;;;;;;0.20;0.20;;;20.90;77.10;;;;;;5018945;28;20206;-91
2022/08/07 09:43:24;;;;;;;0.20;0.20;;;21.10;80.00;;;;;;5016675;28;20192;-90
2022/08/07 09:46:09;;;;;;;0.32;0.32;;;21.50;76.30;;;;;;5016460;28;20276;-90
2022/08/07 09:49:18;;;;;;;0.45;0.45;;;21.80;75.00;;;;;;5016556;28;20272;-91
2022/08/07 09:52:22;;;;;;;0.30;0.30;;;21.80;75.30;;;;;;4994121;28;20196;-90
2022/08/07 09:55:00;;;;;;;0.43;0.40;;;21.90;77.70;;;;;;5015841;28;20204;-89
2022/08/07 09:57:35;;;;;;;0.38;0.38;;;21.90;72.90;;;;;;5016799;28;20169;-90
2022/08/07 10:00:12;;;;;;;0.20;0.20;;;22.00;76.20;;;;;;5019333;28;20271;-90
2022/08/07 10:03:25;;;;;;;0.38;0.30;;;22.20;76.40;;;;;;5035666;28;20172;-90
2022/08/07 10:05:51;;;;;;;0.47;0.28;;;;;;;;;;4983355;28;20200;-92
2022/08/07 10:08:49;;;;;;;0.20;0.20;;;22.40;75.80;;;;;;5036645;28;20645;-92
2022/08/07 10:11:45;;;;;;;0.63;0.60;;;22.70;74.40;;;;;;5037230;28;20164;-91
2022/08/07 10:14:35;;;;;;;0.60;0.30;;;22.70;71.90;;;;;;5036548;28;20197;-92
2022/08/07 10:17:32;;;;;;;0.90;0.40;;;22.70;73.20;;;;;;5048963;28;20188;-92
2022/08/07 10:19:58;;;;;;;0.20;0.20;;;;;;;;;;5060418;28;20176;-89
2022/08/07 10:22:37;;;;;;;0.35;0.30;;;22.50;72.50;;;;;;5059616;28;20164;-91
2022/08/07 10:25:08;;;;;;;0.98;0.52;;;23.00;71.90;;;;;;5059216;28;20162;-91
2022/08/07 10:28:20;;;;;;;0.20;0.20;;;23.00;72.20;;;;;;5059975;28;20213;-90
2022/08/07 10:31:17;;;;;;;1.10;0.40;;;22.80;69.90;;;;;;5059754;28;20204;-92
2022/08/07 10:34:12;;;;;;;0.43;0.22;;;23.20;72.70;;;;;;5059797;28;20188;-95
2022/08/07 10:37:04;;;;;;;0.20;0.20;;;23.00;68.10;;;;;;5064097;28;20219;-90
2022/08/07 10:39:51;;;;;;;0.20;0.20;;;22.90;69.70;;;;;;5079860;28;20184;-91
2022/08/07 10:42:23;;;;;;;0.28;0.28;;;23.10;69.90;;;;;;5062676;28;20160;-91
2022/08/07 10:45:00;;;;;;;2.30;0.55;;;22.70;85.80;;;;;;5062609;28;20199;-91
2022/08/07 10:47:38;;;;;;;2.58;0.40;;;23.10;71.90;;;;;;5062607;28;20184;-92
2022/08/07 10:50:09;;;;;;;0.20;0.20;;;23.30;86.10;;;;;;5041901;28;20302;-91
2022/08/07 10:52:35;;;;;;;0.73;0.20;;;;;;;;;;5038248;28;20172;-91
2022/08/07 10:55:10;;;;;;;0.20;0.20;;;23.00;70.00;;;;;;5055435;28;20208;-91
2022/08/07 10:58:14;;;;;;;0.45;0.35;;;22.90;70.70;;;;;;5056056;28;20214;-93
2022/08/07 11:00:54;;;;;;;0.38;0.30;;;22.80;68.20;;;;;;5056131;28;20172;-93
2022/08/07 11:03:33;;;;;;;0.47;0.30;;;22.80;68.50;;;;;;5037960;28;20207;-89
2022/08/07 11:06:13;;;;;;;0.50;0.40;;;22.70;66.80;;;;;;5055598;28;20223;-92
2022/08/07 11:08:57;;;;;;;0.30;0.30;;;22.80;67.60;;;;;;5038633;28;20218;-90
2022/08/07 11:11:30;;;;;;;0.35;0.35;;;22.80;67.90;;;;;;5055566;28;20210;-91
2022/08/07 11:14:29;;;;;;;0.40;0.30;;;22.90;67.30;;;;;;5055258;28;20645;-91
2022/08/07 11:16:55;;;;;;;0.30;0.30;;;;;;;;;;5032784;28;20187;-91
2022/08/07 11:19:48;;;;;;;0.43;0.30;;;23.40;68.90;;;;;;5037853;28;20232;-92
2022/08/07 11:22:26;;;;;;;3.53;0.40;;;23.40;69.60;;;;;;5055960;28;20566;-91
2022/08/07 11:25:17;;;;;;;2.20;0.43;;;23.90;69.90;;;;;;5038246;28;20175;-93
2022/08/07 11:28:13;;;;;;;0.47;0.35;;;23.80;66.70;;;;;;5056992;28;20230;-92
2022/08/07 11:30:57;;;;;;;0.68;0.63;;;23.70;67.10;;;;;;5037685;28;20180;-91
2022/08/07 11:33:31;;;;;;;0.60;0.55;;;23.20;67.40;;;;;;5037959;28;20191;-91
2022/08/07 11:36:24;;;;;;;0.20;0.20;;;23.20;68.30;;;;;;5038114;28;20269;-92
2022/08/07 11:39:08;;;;;;;0.77;0.30;;;23.10;68.20;;;;;;5054845;28;20187;-91
2022/08/07 11:41:48;;;;;;;0.20;0.20;;;23.10;66.90;;;;;;5037284;28;20172;-93
2022/08/07 11:44:27;;;;;;;0.75;0.30;;;23.20;64.80;;;;;;5054223;28;20164;-93
2022/08/07 11:47:16;;;;;;;0.25;0.25;;;23.40;68.30;;;;;;5037206;28;20199;-91
2022/08/07 11:50:19;;;;;;;0.50;0.50;;;23.50;68.10;;;;;;5055328;28;20164;-94
2022/08/07 11:53:01;;;;;;;0.10;0.10;;;23.90;63.80;;;;;;5054890;28;20262;-93
2022/08/07 11:56:05;;;;;;;0.30;0.20;;;23.60;76.30;;;;;;5036944;28;20664;-93
2022/08/07 11:58:49;;;;;;;1.45;0.15;;;24.00;63.20;;;;;;5036980;28;20210;-94
2022/08/07 12:01:29;;;;;;;0.40;0.35;;;23.90;65.80;;;;;;5036346;28;20199;-94
2022/08/07 12:04:35;;;;;;;0.40;0.30;;;24.20;80.00;;;;;;5036511;28;20176;-92
2022/08/07 12:07:11;;;;;;;0.30;0.30;;;24.20;66.90;;;;;;5054162;28;20176;-93
2022/08/07 12:09:55;;;;;;;1.02;0.30;;;24.40;64.60;;;;;;5036371;28;20193;-92
2022/08/07 12:13:02;;;;;;;0.20;0.20;;;24.30;65.20;;;;;;5037441;28;20175;-92
2022/08/07 12:15:42;;;;;;;0.28;0.28;;;24.10;64.00;;;;;;5036920;28;20576;-94
2022/08/07 12:18:29;;;;;;;0.32;0.30;;;24.00;64.70;;;;;;5037264;28;20172;-93
2022/08/07 12:21:19;;;;;;;1.00;0.40;;;24.10;65.80;;;;;;5037131;28;20183;-92
2022/08/07 12:24:03;;;;;;;0.32;0.20;;;24.10;64.40;;;;;;5055022;28;20165;-93
2022/08/07 12:26:52;;;;;;;0.88;0.25;;;24.10;62.10;;;;;;5054986;28;20254;-92
2022/08/07 12:29:26;;;;;;;1.00;0.40;;;23.80;64.20;;;;;;5054596;28;20160;-94
2022/08/07 12:32:06;;;;;;;0.98;0.45;;;24.00;65.30;;;;;;5054499;28;20660;-94
2022/08/07 12:34:43;;;;;;;0.55;0.55;;;24.20;61.60;;;;;;5036986;28;20315;-94
2022/08/07 12:37:11;;;;;;;0.22;0.22;;;24.40;60.00;;;;;;5036182;28;20269;-93
2022/08/07 12:39:39;;;;;;;0.20;0.20;;;24.30;61.80;;;;;;5054162;28;20188;-95
2022/08/07 12:42:06;;;;;;;0.35;0.20;;;24.40;62.10;;;;;;5055636;28;20521;-92
2022/08/07 12:44:37;;;;;;;0.85;0.47;;;24.50;59.10;;;;;;5037021;28;20218;-93
2022/08/07 12:47:34;;;;;;;0.68;0.40;;;24.50;59.90;;;;;;5020585;28;20534;-94
2022/08/07 12:50:28;;;;;;;0.77;0.30;;;24.60;59.70;;;;;;5041321;28;20263;-94
2022/08/07 12:53:10;;;;;;;0.85;0.30;;;24.60;59.30;;;;;;5054038;28;20187;-92
2022/08/07 12:55:36;;;;;;;0.20;0.10;;;;;;;;;;5054766;28;20215;-92
2022/08/07 12:58:05;;;;;;;0.20;0.20;;;24.60;58.80;;;;;;5040444;28;20176;-93
2022/08/07 13:00:52;;;;;;;0.55;0.30;;;24.40;73.60;;;;;;5065029;28;20180;-94
2022/08/07 13:03:18;;;;;;;1.02;0.40;;;;;;;;;;5044220;28;20259;-92
2022/08/07 13:06:07;;;;;;;0.40;0.40;;;24.10;72.80;;;;;;5044683;28;20274;-92
2022/08/07 13:08:36;;;;;;;0.20;0.20;;;;;;;;;;5040675;28;20176;-95
2022/08/07 13:11:12;;;;;;;0.20;0.20;;;;;;;;;;5040063;28;20221;-92
2022/08/07 13:13:38;;;;;;;0.20;0.20;;;;;;;;;;5040456;28;20625;-91
2022/08/07 13:17:13;;;;;;;;;;;;;;;;;;;;;
2022/08/07 13:20:14;;;;;;;0.70;0.10;;;24.30;58.80;;;;;;5046012;28;20195;-94
2022/08/07 13:22:59;;;;;;;0.20;0.20;;;24.40;55.90;;;;;;5037238;28;20190;-94
2022/08/07 13:25:33;;;;;;;1.60;0.20;;;24.60;57.80;;;;;;5039286;28;20218;-91
2022/08/07 13:28:10;;;;;;;0.17;0.17;;;24.50;57.00;;;;;;5040250;28;20202;-92
2022/08/07 13:30:43;;;;;;;0.70;0.30;;;24.40;56.40;;;;;;5039414;28;20210;-90
2022/08/07 13:33:22;;;;;;;0.25;0.20;;;24.40;56.70;;;;;;5056537;28;20351;-92
2022/08/07 13:36:04;;;;;;;0.20;0.17;;;24.40;56.70;;;;;;5039885;28;20270;-92
2022/08/07 13:38:51;;;;;;;0.20;0.20;;;24.60;56.40;;;;;;5056572;28;20266;-91
2022/08/07 13:41:41;;;;;;;0.20;0.20;;;24.00;69.80;;;;;;5039195;28;20179;-91